sensor_id;sensor_type;location;lat;lon;timestamp;pressure;altitude;pressure_sealevel;temperature;humidity
64602;BME280;68371;42.630;23.192;2023-05-18T00:01:04;91865.81;;;11.63;100.00
64602;BME280;68371;42.630;23.192;2023-05-18T00:03:33;91860.59;;;11.67;100.00
64602;BME280;68371;42.630;23.192;2023-05-18T00:06:00;91865.88;;;11.67;100.00
64602;BME280;68371;42.630;23.192;2023-05-18T00:08:33;91865.13;;;11.66;100.00
64602;BME280;68371;42.630;23.192;2023-05-18T00:11:00;91829.91;;;11.48;100.00
64602;BME280;68371;42.630;23.192;2023-05-18T00:13:27;91846.59;;;11.59;100.00
64602;BME280;68371;42.630;23.192;2023-05-18T00:15:54;91859.03;;;11.62;100.00
64602;BME280;68371;42.630;23.192;2023-05-18T00:18:22;91851.84;;;11.59;100.00
64602;BME280;68371;42.630;23.192;2023-05-18T00:20:50;91863.19;;;11.63;100.00
64602;BME280;68371;42.630;23.192;2023-05-18T00:23:23;91865.72;;;11.56;100.00
64602;BME280;68371;42.630;23.192;2023-05-18T00:25:50;91865.31;;;11.54;100.00
64602;BME280;68371;42.630;23.192;2023-05-18T00:28:17;91868.75;;;11.58;100.00
64602;BME280;68371;42.630;23.192;2023-05-18T00:30:43;91863.09;;;11.56;100.00
64602;BME280;68371;42.630;23.192;2023-05-18T00:33:10;91867.34;;;11.64;100.00
64602;BME280;68371;42.630;23.192;2023-05-18T00:35:38;91870.38;;;11.66;100.00
64602;BME280;68371;42.630;23.192;2023-05-18T00:38:05;91865.88;;;11.67;100.00
64602;BME280;68371;42.630;23.192;2023-05-18T00:40:32;91865.91;;;11.70;100.00
64602;BME280;68371;42.630;23.192;2023-05-18T00:43:00;91871.59;;;11.72;100.00
64602;BME280;68371;42.630;23.192;2023-05-18T00:45:27;91837.47;;;11.53;100.00
64602;BME280;68371;42.630;23.192;2023-05-18T00:47:54;91870.47;;;11.73;100.00
64602;BME280;68371;42.630;23.192;2023-05-18T00:50:20;91866.31;;;11.72;100.00
64602;BME280;68371;42.630;23.192;2023-05-18T00:52:49;91864.78;;;11.71;100.00
64602;BME280;68371;42.630;23.192;2023-05-18T00:55:16;91858.44;;;11.72;100.00
64602;BME280;68371;42.630;23.192;2023-05-18T00:57:43;91863.38;;;11.77;100.00
64602;BME280;68371;42.630;23.192;2023-05-18T01:00:12;91858.50;;;11.79;100.00
64602;BME280;68371;42.630;23.192;2023-05-18T01:02:40;91858.50;;;11.79;100.00
64602;BME280;68371;42.630;23.192;2023-05-18T01:05:09;91857.00;;;11.78;100.00
64602;BME280;68371;42.630;23.192;2023-05-18T01:07:37;91860.03;;;11.80;100.00
64602;BME280;68371;42.630;23.192;2023-05-18T01:10:10;91849.13;;;11.78;100.00
64602;BME280;68371;42.630;23.192;2023-05-18T01:12:41;91847.91;;;11.72;100.00
64602;BME280;68371;42.630;23.192;2023-05-18T01:15:13;91863.03;;;11.79;100.00
64602;BME280;68371;42.630;23.192;2023-05-18T01:17:56;91832.31;;;11.60;100.00
64602;BME280;68371;42.630;23.192;2023-05-18T01:20:31;91862.28;;;11.78;100.00
64602;BME280;68371;42.630;23.192;2023-05-18T01:23:15;91830.53;;;11.68;100.00
64602;BME280;68371;42.630;23.192;2023-05-18T01:25:59;91847.91;;;11.72;100.00
64602;BME280;68371;42.630;23.192;2023-05-18T01:28:29;91861.94;;;11.83;100.00
64602;BME280;68371;42.630;23.192;2023-05-18T01:30:57;91858.97;;;11.85;100.00
64602;BME280;68371;42.630;23.192;2023-05-18T01:33:24;91858.16;;;11.81;100.00
64602;BME280;68371;42.630;23.192;2023-05-18T01:35:51;91858.22;;;11.85;100.00
64602;BME280;68371;42.630;23.192;2023-05-18T01:38:19;91859.72;;;11.86;100.00
64602;BME280;68371;42.630;23.192;2023-05-18T01:40:57;91862.00;;;11.87;100.00
64602;BME280;68371;42.630;23.192;2023-05-18T01:43:31;91869.25;;;11.90;100.00
64602;BME280;68371;42.630;23.192;2023-05-18T01:46:03;91864.31;;;11.89;100.00
64602;BME280;68371;42.630;23.192;2023-05-18T01:48:38;91793.38;;;11.42;100.00
64602;BME280;68371;42.630;23.192;2023-05-18T01:51:11;91865.06;;;11.89;100.00
64602;BME280;68371;42.630;23.192;2023-05-18T01:53:43;91844.16;;;11.73;100.00
64602;BME280;68371;42.630;23.192;2023-05-18T01:56:12;91866.94;;;11.89;100.00
64602;BME280;68371;42.630;23.192;2023-05-18T01:58:41;91848.34;;;11.78;100.00
64602;BME280;68371;42.630;23.192;2023-05-18T02:01:09;91862.44;;;11.89;100.00
64602;BME280;68371;42.630;23.192;2023-05-18T02:03:36;91856.06;;;11.90;100.00
64602;BME280;68371;42.630;23.192;2023-05-18T02:06:04;91858.34;;;11.92;100.00
64602;BME280;68371;42.630;23.192;2023-05-18T02:08:31;91868.84;;;11.92;100.00
64602;BME280;68371;42.630;23.192;2023-05-18T02:10:57;91865.47;;;11.91;100.00
64602;BME280;68371;42.630;23.192;2023-05-18T02:13:24;91841.16;;;11.75;100.00
64602;BME280;68371;42.630;23.192;2023-05-18T02:15:52;91865.88;;;11.93;100.00
64602;BME280;68371;42.630;23.192;2023-05-18T02:18:19;91877.00;;;11.83;100.00
64602;BME280;68371;42.630;23.192;2023-05-18T02:20:46;91873.16;;;11.77;100.00
64602;BME280;68371;42.630;23.192;2023-05-18T02:23:14;91871.19;;;11.70;100.00
64602;BME280;68371;42.630;23.192;2023-05-18T02:25:41;91871.53;;;11.69;100.00
64602;BME280;68371;42.630;23.192;2023-05-18T02:28:12;91868.59;;;11.74;100.00
64602;BME280;68371;42.630;23.192;2023-05-18T02:30:40;91864.09;;;11.74;100.00
64602;BME280;68371;42.630;23.192;2023-05-18T02:33:13;91871.31;;;11.81;100.00
64602;BME280;68371;42.630;23.192;2023-05-18T02:35:42;91879.97;;;11.81;100.00
64602;BME280;68371;42.630;23.192;2023-05-18T02:38:08;91868.22;;;11.75;100.00
64602;BME280;68371;42.630;23.192;2023-05-18T02:40:36;91879.63;;;11.83;100.00
64602;BME280;68371;42.630;23.192;2023-05-18T02:43:03;91872.06;;;11.81;100.00
64602;BME280;68371;42.630;23.192;2023-05-18T02:45:30;91880.75;;;11.82;100.00
64602;BME280;68371;42.630;23.192;2023-05-18T02:47:56;91877.00;;;11.83;100.00
64602;BME280;68371;42.630;23.192;2023-05-18T02:50:24;91876.25;;;11.82;100.00
64602;BME280;68371;42.630;23.192;2023-05-18T02:52:51;91876.59;;;11.81;100.00
64602;BME280;68371;42.630;23.192;2023-05-18T02:55:18;91875.06;;;11.80;100.00
64602;BME280;68371;42.630;23.192;2023-05-18T02:57:44;91881.56;;;11.86;100.00
64602;BME280;68371;42.630;23.192;2023-05-18T03:00:13;91867.03;;;11.69;100.00
64602;BME280;68371;42.630;23.192;2023-05-18T03:02:44;91855.63;;;11.61;100.00
64602;BME280;68371;42.630;23.192;2023-05-18T03:05:12;91891.31;;;11.86;100.00
64602;BME280;68371;42.630;23.192;2023-05-18T03:07:43;91903.72;;;11.85;100.00
64602;BME280;68371;42.630;23.192;2023-05-18T03:10:15;91900.56;;;11.76;100.00
64602;BME280;68371;42.630;23.192;2023-05-18T03:12:43;91902.78;;;11.74;100.00
64602;BME280;68371;42.630;23.192;2023-05-18T03:15:10;91888.78;;;11.66;100.00
64602;BME280;68371;42.630;23.192;2023-05-18T03:17:40;91915.19;;;11.73;100.00
64602;BME280;68371;42.630;23.192;2023-05-18T03:20:09;91916.72;;;11.74;100.00
64602;BME280;68371;42.630;23.192;2023-05-18T03:22:39;91898.09;;;11.60;100.00
64602;BME280;68371;42.630;23.192;2023-05-18T03:25:07;91896.41;;;11.48;100.00
64602;BME280;68371;42.630;23.192;2023-05-18T03:27:34;91924.00;;;11.58;100.00
64602;BME280;68371;42.630;23.192;2023-05-18T03:30:03;91919.34;;;11.51;100.00
64602;BME280;68371;42.630;23.192;2023-05-18T03:32:29;91929.06;;;11.47;100.00
64602;BME280;68371;42.630;23.192;2023-05-18T03:34:57;91909.38;;;11.37;100.00
64602;BME280;68371;42.630;23.192;2023-05-18T03:37:25;91934.31;;;11.47;100.00
64602;BME280;68371;42.630;23.192;2023-05-18T03:39:52;91925.34;;;11.48;100.00
64602;BME280;68371;42.630;23.192;2023-05-18T03:42:21;91937.66;;;11.44;100.00
64602;BME280;68371;42.630;23.192;2023-05-18T03:44:47;91932.88;;;11.50;100.00
64602;BME280;68371;42.630;23.192;2023-05-18T03:47:14;91927.97;;;11.48;100.00
64602;BME280;68371;42.630;23.192;2023-05-18T03:49:41;91925.59;;;11.39;100.00
64602;BME280;68371;42.630;23.192;2023-05-18T03:52:10;91935.88;;;11.48;100.00
64602;BME280;68371;42.630;23.192;2023-05-18T03:54:39;91922.09;;;11.35;100.00
64602;BME280;68371;42.630;23.192;2023-05-18T03:57:07;91943.38;;;11.27;100.00
64602;BME280;68371;42.630;23.192;2023-05-18T03:59:35;91937.13;;;11.35;100.00
64602;BME280;68371;42.630;23.192;2023-05-18T04:02:01;91936.50;;;11.41;100.00
64602;BME280;68371;42.630;23.192;2023-05-18T04:04:28;91942.81;;;11.37;100.00
64602;BME280;68371;42.630;23.192;2023-05-18T04:06:55;91948.88;;;11.41;100.00
64602;BME280;68371;42.630;23.192;2023-05-18T04:09:22;91951.91;;;11.43;100.00
64602;BME280;68371;42.630;23.192;2023-05-18T04:11:48;91951.63;;;11.48;100.00
64602;BME280;68371;42.630;23.192;2023-05-18T04:14:15;91956.84;;;11.45;100.00
64602;BME280;68371;42.630;23.192;2023-05-18T04:16:46;91954.50;;;11.39;100.00
64602;BME280;68371;42.630;23.192;2023-05-18T04:19:13;91953.88;;;11.46;100.00
64602;BME280;68371;42.630;23.192;2023-05-18T04:21:41;91956.00;;;11.40;100.00
64602;BME280;68371;42.630;23.192;2023-05-18T04:24:08;91950.75;;;11.40;100.00
64602;BME280;68371;42.630;23.192;2023-05-18T04:26:39;91961.78;;;11.27;100.00
64602;BME280;68371;42.630;23.192;2023-05-18T04:29:07;91957.00;;;11.32;100.00
64602;BME280;68371;42.630;23.192;2023-05-18T04:31:35;91955.03;;;11.26;100.00
64602;BME280;68371;42.630;23.192;2023-05-18T04:34:03;91964.25;;;11.16;100.00
64602;BME280;68371;42.630;23.192;2023-05-18T04:36:31;91961.31;;;11.21;100.00
64602;BME280;68371;42.630;23.192;2023-05-18T04:39:00;91968.63;;;11.31;100.00
64602;BME280;68371;42.630;23.192;2023-05-18T04:41:32;91965.25;;;11.31;100.00
64602;BME280;68371;42.630;23.192;2023-05-18T04:43:59;91969.81;;;11.34;100.00
64602;BME280;68371;42.630;23.192;2023-05-18T04:46:26;91966.81;;;11.35;100.00
64602;BME280;68371;42.630;23.192;2023-05-18T04:48:53;91970.03;;;11.25;100.00
64602;BME280;68371;42.630;23.192;2023-05-18T04:51:23;91982.75;;;11.23;100.00
64602;BME280;68371;42.630;23.192;2023-05-18T04:53:50;91974.19;;;11.26;100.00
64602;BME280;68371;42.630;23.192;2023-05-18T04:56:18;91969.16;;;11.17;100.00
64602;BME280;68371;42.630;23.192;2023-05-18T04:58:49;91980.09;;;11.19;100.00
64602;BME280;68371;42.630;23.192;2023-05-18T05:01:22;91978.28;;;11.23;100.00
64602;BME280;68371;42.630;23.192;2023-05-18T05:03:49;91994.22;;;11.34;100.00
64602;BME280;68371;42.630;23.192;2023-05-18T05:06:16;91996.34;;;11.48;100.00
64602;BME280;68371;42.630;23.192;2023-05-18T05:08:45;92001.38;;;11.57;100.00
64602;BME280;68371;42.630;23.192;2023-05-18T05:11:14;91994.63;;;11.56;100.00
64602;BME280;68371;42.630;23.192;2023-05-18T05:13:41;91998.56;;;11.46;100.00
64602;BME280;68371;42.630;23.192;2023-05-18T05:16:08;92001.47;;;11.41;100.00
64602;BME280;68371;42.630;23.192;2023-05-18T05:18:35;92003.50;;;11.48;100.00
64602;BME280;68371;42.630;23.192;2023-05-18T05:21:01;92006.56;;;11.53;100.00
64602;BME280;68371;42.630;23.192;2023-05-18T05:23:28;92004.34;;;11.55;100.00
64602;BME280;68371;42.630;23.192;2023-05-18T05:25:56;91997.25;;;11.56;100.00
64602;BME280;68371;42.630;23.192;2023-05-18T05:28:23;92010.91;;;11.65;100.00
64602;BME280;68371;42.630;23.192;2023-05-18T05:30:50;92016.47;;;11.60;100.00
64602;BME280;68371;42.630;23.192;2023-05-18T05:33:17;92008.53;;;11.56;100.00
64602;BME280;68371;42.630;23.192;2023-05-18T05:35:46;92011.16;;;11.56;100.00
64602;BME280;68371;42.630;23.192;2023-05-18T05:38:12;92012.63;;;11.54;100.00
64602;BME280;68371;42.630;23.192;2023-05-18T05:40:39;92010.81;;;11.58;100.00
64602;BME280;68371;42.630;23.192;2023-05-18T05:43:07;92017.91;;;11.57;100.00
64602;BME280;68371;42.630;23.192;2023-05-18T05:45:34;92020.56;;;11.57;100.00
64602;BME280;68371;42.630;23.192;2023-05-18T05:48:01;92023.81;;;11.51;100.00
64602;BME280;68371;42.630;23.192;2023-05-18T05:50:27;92031.03;;;11.54;100.00
64602;BME280;68371;42.630;23.192;2023-05-18T05:52:54;92026.53;;;11.54;100.00
64602;BME280;68371;42.630;23.192;2023-05-18T05:55:21;92009.19;;;11.30;100.00
64602;BME280;68371;42.630;23.192;2023-05-18T05:57:48;92031.78;;;11.54;100.00
64602;BME280;68371;42.630;23.192;2023-05-18T06:00:18;92018.09;;;11.45;100.00
64602;BME280;68371;42.630;23.192;2023-05-18T06:02:48;92017.00;;;11.46;100.00
64602;BME280;68371;42.630;23.192;2023-05-18T06:05:16;92025.69;;;11.50;100.00
64602;BME280;68371;42.630;23.192;2023-05-18T06:07:43;92025.06;;;11.57;100.00
64602;BME280;68371;42.630;23.192;2023-05-18T06:10:09;92020.31;;;11.43;100.00
64602;BME280;68371;42.630;23.192;2023-05-18T06:12:36;92027.28;;;11.55;100.00
64602;BME280;68371;42.630;23.192;2023-05-18T06:15:03;92022.91;;;11.62;100.00
64602;BME280;68371;42.630;23.192;2023-05-18T06:17:31;92027.41;;;11.62;100.00
64602;BME280;68371;42.630;23.192;2023-05-18T06:19:58;92032.84;;;11.73;100.00
64602;BME280;68371;42.630;23.192;2023-05-18T06:22:24;92038.53;;;11.75;100.00
64602;BME280;68371;42.630;23.192;2023-05-18T06:24:52;92031.69;;;11.70;100.00
64602;BME280;68371;42.630;23.192;2023-05-18T06:27:18;91953.16;;;11.26;100.00
64602;BME280;68371;42.630;23.192;2023-05-18T06:29:46;92042.25;;;11.93;100.00
64602;BME280;68371;42.630;23.192;2023-05-18T06:32:13;92040.66;;;11.89;100.00
64602;BME280;68371;42.630;23.192;2023-05-18T06:34:41;92044.47;;;11.91;100.00
64602;BME280;68371;42.630;23.192;2023-05-18T06:37:10;92046.81;;;11.96;100.00
64602;BME280;68371;42.630;23.192;2023-05-18T06:39:37;92049.72;;;11.91;100.00
64602;BME280;68371;42.630;23.192;2023-05-18T06:42:04;92048.88;;;11.87;100.00
64602;BME280;68371;42.630;23.192;2023-05-18T06:44:31;92047.16;;;11.95;100.00
64602;BME280;68371;42.630;23.192;2023-05-18T06:46:57;92050.94;;;11.97;100.00
64602;BME280;68371;42.630;23.192;2023-05-18T06:49:24;92053.31;;;12.02;100.00
64602;BME280;68371;42.630;23.192;2023-05-18T06:51:53;92060.72;;;11.97;100.00
64602;BME280;68371;42.630;23.192;2023-05-18T06:54:20;92062.03;;;11.87;100.00
64602;BME280;68371;42.630;23.192;2023-05-18T06:56:48;92065.19;;;11.73;100.00
64602;BME280;68371;42.630;23.192;2023-05-18T06:59:15;92041.31;;;11.62;100.00
64602;BME280;68371;42.630;23.192;2023-05-18T07:01:41;92063.16;;;11.86;100.00
64602;BME280;68371;42.630;23.192;2023-05-18T07:04:08;92070.03;;;11.91;100.00
64602;BME280;68371;42.630;23.192;2023-05-18T07:06:35;92077.22;;;11.94;100.00
64602;BME280;68371;42.630;23.192;2023-05-18T07:09:05;92039.03;;;11.61;100.00
64602;BME280;68371;42.630;23.192;2023-05-18T07:11:32;92042.25;;;11.74;100.00
64602;BME280;68371;42.630;23.192;2023-05-18T07:13:59;92078.81;;;11.79;100.00
64602;BME280;68371;42.630;23.192;2023-05-18T07:16:26;92076.94;;;11.79;100.00
64602;BME280;68371;42.630;23.192;2023-05-18T07:18:55;92087.94;;;11.85;100.00
64602;BME280;68371;42.630;23.192;2023-05-18T07:21:22;92077.84;;;11.68;100.00
64602;BME280;68371;42.630;23.192;2023-05-18T07:23:51;92102.78;;;11.74;100.00
64602;BME280;68371;42.630;23.192;2023-05-18T07:26:19;92092.31;;;11.77;100.00
64602;BME280;68371;42.630;23.192;2023-05-18T07:28:46;92094.06;;;11.70;100.00
64602;BME280;68371;42.630;23.192;2023-05-18T07:31:14;92095.19;;;11.69;100.00
64602;BME280;68371;42.630;23.192;2023-05-18T07:33:42;92101.75;;;11.59;100.00
64602;BME280;68371;42.630;23.192;2023-05-18T07:36:09;92080.53;;;11.29;100.00
64602;BME280;68371;42.630;23.192;2023-05-18T07:38:36;92106.41;;;11.46;100.00
64602;BME280;68371;42.630;23.192;2023-05-18T07:41:03;92103.22;;;11.56;100.00
64602;BME280;68371;42.630;23.192;2023-05-18T07:43:31;92109.88;;;11.31;100.00
64602;BME280;68371;42.630;23.192;2023-05-18T07:45:58;92114.72;;;11.48;100.00
64602;BME280;68371;42.630;23.192;2023-05-18T07:48:27;92113.19;;;11.47;100.00
64602;BME280;68371;42.630;23.192;2023-05-18T07:50:56;92080.44;;;11.25;100.00
64602;BME280;68371;42.630;23.192;2023-05-18T07:53:22;92128.09;;;11.39;100.00
64602;BME280;68371;42.630;23.192;2023-05-18T07:55:51;92111.16;;;11.21;100.00
64602;BME280;68371;42.630;23.192;2023-05-18T07:58:17;92136.44;;;11.45;100.00
64602;BME280;68371;42.630;23.192;2023-05-18T08:00:46;92141.28;;;11.23;100.00
64602;BME280;68371;42.630;23.192;2023-05-18T08:03:12;92138.72;;;11.27;100.00
64602;BME280;68371;42.630;23.192;2023-05-18T08:05:39;92141.41;;;11.31;100.00
64602;BME280;68371;42.630;23.192;2023-05-18T08:08:06;92147.94;;;11.37;100.00
64602;BME280;68371;42.630;23.192;2023-05-18T08:10:36;92077.00;;;11.01;100.00
64602;BME280;68371;42.630;23.192;2023-05-18T08:13:02;92160.81;;;11.42;100.00
64602;BME280;68371;42.630;23.192;2023-05-18T08:15:29;92156.09;;;11.32;100.00
64602;BME280;68371;42.630;23.192;2023-05-18T08:17:58;92159.50;;;11.32;100.00
64602;BME280;68371;42.630;23.192;2023-05-18T08:20:27;92161.22;;;11.25;100.00
64602;BME280;68371;42.630;23.192;2023-05-18T08:22:55;92150.19;;;11.19;100.00
64602;BME280;68371;42.630;23.192;2023-05-18T08:25:23;92167.59;;;11.23;100.00
64602;BME280;68371;42.630;23.192;2023-05-18T08:27:50;92171.94;;;11.16;100.00
64602;BME280;68371;42.630;23.192;2023-05-18T08:30:17;92165.56;;;11.17;100.00
64602;BME280;68371;42.630;23.192;2023-05-18T08:32:45;92172.84;;;11.23;100.00
64602;BME280;68371;42.630;23.192;2023-05-18T08:35:14;92175.53;;;11.27;100.00
64602;BME280;68371;42.630;23.192;2023-05-18T08:37:40;92158.50;;;11.21;100.00
64602;BME280;68371;42.630;23.192;2023-05-18T08:40:08;92183.38;;;11.23;100.00
64602;BME280;68371;42.630;23.192;2023-05-18T08:42:38;92166.38;;;11.21;100.00
64602;BME280;68371;42.630;23.192;2023-05-18T08:45:10;92198.81;;;11.45;100.00
64602;BME280;68371;42.630;23.192;2023-05-18T08:47:37;92199.78;;;11.36;100.00
64602;BME280;68371;42.630;23.192;2023-05-18T08:50:05;92210.28;;;11.36;100.00
64602;BME280;68371;42.630;23.192;2023-05-18T08:52:35;92211.63;;;11.46;100.00
64602;BME280;68371;42.630;23.192;2023-05-18T08:55:04;92211.28;;;11.48;100.00
64602;BME280;68371;42.630;23.192;2023-05-18T08:57:34;92205.53;;;11.42;100.00
64602;BME280;68371;42.630;23.192;2023-05-18T09:00:02;92218.94;;;11.37;100.00
64602;BME280;68371;42.630;23.192;2023-05-18T09:02:30;92214.22;;;11.27;100.00
64602;BME280;68371;42.630;23.192;2023-05-18T09:04:57;92232.50;;;11.39;100.00
64602;BME280;68371;42.630;23.192;2023-05-18T09:07:25;92232.25;;;11.44;100.00
64602;BME280;68371;42.630;23.192;2023-05-18T09:09:56;92239.19;;;11.52;100.00
64602;BME280;68371;42.630;23.192;2023-05-18T09:12:25;92241.25;;;11.43;100.00
64602;BME280;68371;42.630;23.192;2023-05-18T09:14:57;92240.22;;;11.48;100.00
64602;BME280;68371;42.630;23.192;2023-05-18T09:17:25;92238.09;;;11.37;100.00
64602;BME280;68371;42.630;23.192;2023-05-18T09:19:52;92252.69;;;11.51;100.00
64602;BME280;68371;42.630;23.192;2023-05-18T09:22:19;92252.13;;;11.61;100.00
64602;BME280;68371;42.630;23.192;2023-05-18T09:24:46;92244.94;;;11.77;100.00
64602;BME280;68371;42.630;23.192;2023-05-18T09:27:14;92255.41;;;11.74;100.00
64602;BME280;68371;42.630;23.192;2023-05-18T09:29:50;92252.78;;;11.74;100.00
64602;BME280;68371;42.630;23.192;2023-05-18T09:32:18;92252.63;;;11.67;100.00
64602;BME280;68371;42.630;23.192;2023-05-18T09:34:45;92231.16;;;11.65;100.00
64602;BME280;68371;42.630;23.192;2023-05-18T09:37:15;92218.22;;;11.56;100.00
64602;BME280;68371;42.630;23.192;2023-05-18T09:39:42;92255.56;;;11.81;100.00
64602;BME280;68371;42.630;23.192;2023-05-18T09:42:09;92265.94;;;11.74;99.50
64602;BME280;68371;42.630;23.192;2023-05-18T09:44:37;92258.81;;;11.74;100.00
64602;BME280;68371;42.630;23.192;2023-05-18T09:47:07;92239.59;;;11.74;100.00
64602;BME280;68371;42.630;23.192;2023-05-18T09:49:34;92247.75;;;11.85;100.00
64602;BME280;68371;42.630;23.192;2023-05-18T09:52:05;92256.38;;;11.85;100.00
64602;BME280;68371;42.630;23.192;2023-05-18T09:54:34;92226.00;;;11.68;100.00
64602;BME280;68371;42.630;23.192;2023-05-18T09:57:04;92249.50;;;11.96;99.53
64602;BME280;68371;42.630;23.192;2023-05-18T09:59:34;92261.47;;;11.94;98.72
64602;BME280;68371;42.630;23.192;2023-05-18T10:02:04;92201.72;;;11.59;97.69
64602;BME280;68371;42.630;23.192;2023-05-18T10:04:37;92263.44;;;11.97;98.47
64602;BME280;68371;42.630;23.192;2023-05-18T10:07:10;92245.69;;;11.94;98.20
64602;BME280;68371;42.630;23.192;2023-05-18T10:09:38;92265.66;;;11.95;98.09
64602;BME280;68371;42.630;23.192;2023-05-18T10:12:09;92210.47;;;11.63;98.58
64602;BME280;68371;42.630;23.192;2023-05-18T10:14:36;92253.38;;;12.02;98.99
64602;BME280;68371;42.630;23.192;2023-05-18T10:17:04;92279.75;;;12.26;98.73
64602;BME280;68371;42.630;23.192;2023-05-18T10:19:33;92279.69;;;12.22;100.00
64602;BME280;68371;42.630;23.192;2023-05-18T10:22:06;92274.66;;;12.13;98.73
64602;BME280;68371;42.630;23.192;2023-05-18T10:24:35;92275.56;;;12.21;97.57
64602;BME280;68371;42.630;23.192;2023-05-18T10:27:06;92281.22;;;12.23;96.17
64602;BME280;68371;42.630;23.192;2023-05-18T10:29:35;92281.34;;;12.30;97.24
64602;BME280;68371;42.630;23.192;2023-05-18T10:32:05;92279.63;;;12.38;98.21
64602;BME280;68371;42.630;23.192;2023-05-18T10:34:34;92284.72;;;12.50;98.14
64602;BME280;68371;42.630;23.192;2023-05-18T10:37:04;92256.00;;;12.22;97.95
64602;BME280;68371;42.630;23.192;2023-05-18T10:39:35;92284.03;;;12.53;98.04
64602;BME280;68371;42.630;23.192;2023-05-18T10:42:08;92274.69;;;12.56;98.59
64602;BME280;68371;42.630;23.192;2023-05-18T10:44:36;92285.91;;;12.53;97.55
64602;BME280;68371;42.630;23.192;2023-05-18T10:47:07;92284.09;;;12.57;98.92
64602;BME280;68371;42.630;23.192;2023-05-18T10:49:36;92286.88;;;12.64;99.02
64602;BME280;68371;42.630;23.192;2023-05-18T10:52:05;92294.16;;;12.51;99.02
64602;BME280;68371;42.630;23.192;2023-05-18T10:54:33;92244.78;;;12.25;97.52
64602;BME280;68371;42.630;23.192;2023-05-18T10:57:01;92288.75;;;12.44;98.10
64602;BME280;68371;42.630;23.192;2023-05-18T10:59:28;92290.22;;;12.41;100.00
64602;BME280;68371;42.630;23.192;2023-05-18T11:01:56;92293.63;;;12.42;99.34
64602;BME280;68371;42.630;23.192;2023-05-18T11:04:25;92288.28;;;12.38;96.96
64602;BME280;68371;42.630;23.192;2023-05-18T11:06:56;92294.03;;;12.25;97.37
64602;BME280;68371;42.630;23.192;2023-05-18T11:09:24;92271.94;;;12.10;100.00
64602;BME280;68371;42.630;23.192;2023-05-18T11:11:52;92270.00;;;12.07;97.92
64602;BME280;68371;42.630;23.192;2023-05-18T11:14:30;92286.13;;;12.25;98.52
64602;BME280;68371;42.630;23.192;2023-05-18T11:17:17;92288.22;;;12.35;100.00
64602;BME280;68371;42.630;23.192;2023-05-18T11:20:14;92290.03;;;12.31;99.85
64602;BME280;68371;42.630;23.192;2023-05-18T11:22:51;92290.44;;;12.33;100.00
64602;BME280;68371;42.630;23.192;2023-05-18T11:25:41;92278.94;;;12.21;100.00
64602;BME280;68371;42.630;23.192;2023-05-18T11:28:10;92284.88;;;12.18;100.00
64602;BME280;68371;42.630;23.192;2023-05-18T11:30:48;92294.47;;;12.27;100.00
64602;BME280;68371;42.630;23.192;2023-05-18T11:33:20;92292.53;;;12.23;99.07
64602;BME280;68371;42.630;23.192;2023-05-18T11:36:00;92299.59;;;12.19;96.93
64602;BME280;68371;42.630;23.192;2023-05-18T11:38:48;92307.72;;;12.11;99.17
64602;BME280;68371;42.630;23.192;2023-05-18T11:41:30;92301.94;;;12.05;95.86
64602;BME280;68371;42.630;23.192;2023-05-18T11:44:15;92301.88;;;11.86;96.21
64602;BME280;68371;42.630;23.192;2023-05-18T11:46:54;92297.91;;;11.92;95.72
64602;BME280;68371;42.630;23.192;2023-05-18T11:49:23;92300.78;;;12.02;94.55
64602;BME280;68371;42.630;23.192;2023-05-18T11:51:56;92301.03;;;11.97;97.02
64602;BME280;68371;42.630;23.192;2023-05-18T11:54:24;92291.06;;;12.07;96.53
64602;BME280;68371;42.630;23.192;2023-05-18T11:56:52;92279.84;;;11.90;97.21
64602;BME280;68371;42.630;23.192;2023-05-18T11:59:29;92300.81;;;12.06;95.34
64602;BME280;68371;42.630;23.192;2023-05-18T12:01:58;92299.88;;;11.95;96.66
64602;BME280;68371;42.630;23.192;2023-05-18T12:04:26;92304.72;;;11.77;94.82
64602;BME280;68371;42.630;23.192;2023-05-18T12:06:55;92311.25;;;11.83;96.39
64602;BME280;68371;42.630;23.192;2023-05-18T12:09:23;92315.91;;;11.74;95.58
64602;BME280;68371;42.630;23.192;2023-05-18T12:11:50;92315.38;;;11.65;94.58
64602;BME280;68371;42.630;23.192;2023-05-18T12:14:17;92311.28;;;11.67;95.23
64602;BME280;68371;42.630;23.192;2023-05-18T12:16:46;92319.22;;;12.02;97.37
64602;BME280;68371;42.630;23.192;2023-05-18T12:19:13;92318.66;;;12.13;96.68
64602;BME280;68371;42.630;23.192;2023-05-18T12:21:39;92317.72;;;12.25;96.65
64602;BME280;68371;42.630;23.192;2023-05-18T12:24:09;92323.78;;;12.25;93.94
64602;BME280;68371;42.630;23.192;2023-05-18T12:26:35;92305.81;;;12.11;92.90
64602;BME280;68371;42.630;23.192;2023-05-18T12:29:05;92322.97;;;12.21;93.55
64602;BME280;68371;42.630;23.192;2023-05-18T12:31:39;92323.06;;;12.28;94.24
64602;BME280;68371;42.630;23.192;2023-05-18T12:34:09;92300.97;;;11.94;93.79
64602;BME280;68371;42.630;23.192;2023-05-18T12:36:39;92321.75;;;12.18;95.36
64602;BME280;68371;42.630;23.192;2023-05-18T12:39:13;92313.09;;;12.18;95.55
64602;BME280;68371;42.630;23.192;2023-05-18T12:41:40;92318.78;;;12.20;94.37
64602;BME280;68371;42.630;23.192;2023-05-18T12:44:07;92324.25;;;12.11;95.43
64602;BME280;68371;42.630;23.192;2023-05-18T12:46:36;92331.13;;;12.16;95.21
64602;BME280;68371;42.630;23.192;2023-05-18T12:49:02;92324.88;;;12.24;94.63
64602;BME280;68371;42.630;23.192;2023-05-18T12:51:33;92324.47;;;12.22;94.24